createdAt,value
2022-11-20T00:01:20.541Z,68.48
2022-11-20T00:03:47.534Z,68.67
2022-11-20T00:06:16.416Z,68.55
2022-11-20T00:08:43.088Z,68.47
2022-11-20T00:11:16.334Z,68.75
2022-11-20T00:13:46.989Z,68.76
2022-11-20T00:16:15.768Z,68.68
2022-11-20T00:18:43.426Z,69.16
2022-11-20T00:21:15.744Z,69.32
2022-11-20T00:23:43.289Z,69.02
2022-11-20T00:26:15.555Z,69.04
2022-11-20T00:28:43.673Z,68.47
2022-11-20T00:31:11.878Z,69.02
2022-11-20T00:33:38.740Z,69.03
2022-11-20T00:36:10.382Z,69.09
2022-11-20T00:38:37.105Z,69.33
2022-11-20T00:41:06.685Z,69.55
2022-11-20T00:43:33.595Z,69.71
2022-11-20T00:46:06.995Z,69.63
2022-11-20T00:48:33.781Z,69.23
2022-11-20T00:51:00.672Z,69.64
2022-11-20T00:53:27.453Z,69.63
2022-11-20T00:56:05.370Z,69.34
2022-11-20T00:58:37.556Z,69.53
2022-11-20T01:01:21.994Z,69.58
2022-11-20T01:03:50.618Z,69.97
2022-11-20T01:06:26.241Z,69.62
2022-11-20T01:08:56.239Z,69.47
2022-11-20T01:11:28.307Z,69.82
2022-11-20T01:13:56.436Z,69.89
2022-11-20T01:16:28.628Z,69.92
2022-11-20T01:18:58.556Z,69.98
2022-11-20T01:21:36.223Z,70.12
2022-11-20T01:24:03.525Z,69.91
2022-11-20T01:26:32.542Z,69.77
2022-11-20T01:29:00.399Z,69.64
2022-11-20T01:31:31.860Z,69.62
2022-11-20T01:34:02.246Z,69.36
2022-11-20T01:36:30.800Z,69.09
2022-11-20T01:39:00.427Z,69.43
2022-11-20T01:41:49.054Z,69.44
2022-11-20T01:44:18.682Z,69.44
2022-11-20T01:47:03.709Z,69.71
2022-11-20T01:49:42.100Z,69.91
2022-11-20T01:52:21.597Z,70.18
2022-11-20T01:55:10.114Z,70.05
2022-11-20T01:57:38.809Z,70.11
2022-11-20T02:00:11.720Z,69.99
2022-11-20T02:02:40.140Z,70.21
2022-11-20T02:05:24.290Z,69.77
2022-11-20T02:07:51.703Z,69.95
2022-11-20T02:10:18.216Z,69.79
2022-11-20T02:13:04.566Z,69.98
2022-11-20T02:15:32.941Z,70.13
2022-11-20T02:17:59.597Z,69.98
2022-11-20T02:20:26.397Z,69.33
2022-11-20T02:23:11.790Z,69.63
2022-11-20T02:25:39.429Z,69.99
2022-11-20T02:28:06.679Z,69.69
2022-11-20T02:30:33.130Z,70.16
2022-11-20T02:32:59.607Z,70.29
2022-11-20T02:35:26.041Z,70.45
2022-11-20T02:37:55.794Z,69.98
2022-11-20T02:40:23.046Z,70.01
2022-11-20T02:42:55.939Z,70.20
2022-11-20T02:45:23.746Z,69.83
2022-11-20T02:47:50.645Z,69.81
2022-11-20T02:50:17.246Z,69.74
2022-11-20T02:52:44.105Z,69.98
2022-11-20T02:55:11.444Z,69.98
2022-11-20T02:57:38.039Z,69.98
2022-11-20T03:00:05.576Z,69.80
2022-11-20T03:02:33.043Z,69.88
2022-11-20T03:04:59.999Z,69.88
2022-11-20T03:07:26.526Z,70.16
2022-11-20T03:09:53.016Z,70.39
2022-11-20T03:12:19.472Z,70.78
2022-11-20T03:14:50.186Z,70.24
2022-11-20T03:17:19.323Z,70.36
2022-11-20T03:19:45.833Z,70.63
2022-11-20T03:22:12.309Z,70.49
2022-11-20T03:24:38.855Z,70.36
2022-11-20T03:27:05.344Z,70.62
2022-11-20T03:29:31.787Z,70.29
2022-11-20T03:31:58.320Z,70.89
2022-11-20T03:34:24.988Z,70.84
2022-11-20T03:36:51.401Z,70.59
2022-11-20T03:39:17.986Z,71.04
2022-11-20T03:41:44.506Z,71.23
2022-11-20T03:44:12.002Z,71.35
2022-11-20T03:46:39.132Z,71.06
2022-11-20T03:49:06.052Z,70.92
2022-11-20T03:51:35.670Z,70.87
2022-11-20T03:54:05.705Z,71.12
2022-11-20T03:56:34.705Z,71.19
2022-11-20T03:59:01.297Z,71.15
2022-11-20T04:01:33.127Z,71.28
2022-11-20T04:04:00.239Z,70.86
2022-11-20T04:06:34.242Z,70.91
2022-11-20T04:09:01.148Z,70.98
2022-11-20T04:11:32.852Z,71.53
2022-11-20T04:14:01.802Z,71.63
2022-11-20T04:16:30.912Z,71.45
2022-11-20T04:18:59.593Z,71.62
2022-11-20T04:21:27.294Z,71.59
2022-11-20T04:23:54.642Z,72.05
2022-11-20T04:26:23.145Z,71.85
2022-11-20T04:28:49.641Z,72.09
2022-11-20T04:31:18.828Z,72.34
2022-11-20T04:33:45.646Z,72.40
2022-11-20T04:36:23.304Z,72.22
2022-11-20T04:38:57.135Z,72.55
2022-11-20T04:41:26.892Z,72.83
2022-11-20T04:44:00.324Z,72.56
2022-11-20T04:46:28.776Z,72.98
2022-11-20T04:48:55.573Z,73.04
2022-11-20T04:51:22.499Z,73.08
2022-11-20T04:53:49.191Z,73.27
2022-11-20T04:56:16.201Z,73.30
2022-11-20T04:58:43.057Z,73.24
2022-11-20T05:01:16.053Z,73.13
2022-11-20T05:03:44.015Z,73.19
2022-11-20T05:06:13.278Z,73.35
2022-11-20T05:08:40.233Z,73.95
2022-11-20T05:11:09.376Z,73.96
2022-11-20T05:13:36.373Z,74.30
2022-11-20T05:16:05.180Z,74.65
2022-11-20T05:18:32.842Z,75.22
2022-11-20T05:20:59.539Z,75.12
2022-11-20T05:23:26.378Z,75.41
2022-11-20T05:25:58.909Z,75.50
2022-11-20T05:28:27.030Z,75.64
2022-11-20T05:30:53.542Z,75.71
2022-11-20T05:33:20.283Z,75.50
2022-11-20T05:35:46.825Z,75.24
2022-11-20T05:38:13.305Z,75.28
2022-11-20T05:40:40.164Z,75.15
2022-11-20T05:43:06.746Z,75.28
2022-11-20T05:45:33.173Z,75.33
2022-11-20T05:48:01.281Z,75.59
2022-11-20T05:50:31.244Z,75.40
2022-11-20T05:53:00.979Z,75.24
2022-11-20T05:55:28.158Z,75.22
2022-11-20T05:57:56.078Z,75.41
2022-11-20T06:00:23.116Z,75.43
2022-11-20T06:02:50.006Z,75.43
2022-11-20T06:05:16.630Z,75.40
2022-11-20T06:07:43.119Z,75.44
2022-11-20T06:10:10.045Z,75.21
2022-11-20T06:12:36.484Z,75.66
2022-11-20T06:15:03.226Z,75.57
2022-11-20T06:17:30.059Z,75.38
2022-11-20T06:19:56.546Z,75.26
2022-11-20T06:22:23.058Z,75.28
2022-11-20T06:24:49.770Z,75.53
2022-11-20T06:27:16.922Z,75.99
2022-11-20T06:29:43.657Z,75.73
2022-11-20T06:32:10.316Z,75.97
2022-11-20T06:34:36.744Z,76.22
2022-11-20T06:37:03.185Z,75.73
2022-11-20T06:39:29.695Z,75.93
2022-11-20T06:41:59.085Z,75.89
2022-11-20T06:44:26.177Z,75.87
2022-11-20T06:46:52.945Z,75.82
2022-11-20T06:49:19.705Z,76.16
2022-11-20T06:51:47.188Z,76.33
2022-11-20T06:54:13.622Z,76.10
2022-11-20T06:56:40.140Z,76.46
2022-11-20T06:59:08.208Z,76.20
2022-11-20T07:01:34.726Z,76.35
2022-11-20T07:04:01.186Z,76.71
2022-11-20T07:06:27.662Z,76.38
2022-11-20T07:08:54.091Z,76.30
2022-11-20T07:11:20.634Z,76.32
2022-11-20T07:13:47.081Z,76.47
2022-11-20T07:16:13.573Z,76.20
2022-11-20T07:18:40.101Z,76.32
2022-11-20T07:21:09.437Z,76.43
2022-11-20T07:23:36.468Z,76.47
2022-11-20T07:26:07.690Z,76.64
2022-11-20T07:28:34.977Z,76.55
2022-11-20T07:31:01.879Z,76.32
2022-11-20T07:33:28.407Z,76.78
2022-11-20T07:35:55.274Z,76.59
2022-11-20T07:38:21.906Z,76.61
2022-11-20T07:40:48.384Z,76.59
2022-11-20T07:43:14.855Z,76.71
2022-11-20T07:45:41.343Z,76.39
2022-11-20T07:48:07.938Z,76.31
2022-11-20T07:50:34.438Z,76.58
2022-11-20T07:53:05.706Z,76.43
2022-11-20T07:55:33.126Z,76.50
2022-11-20T07:58:00.150Z,76.66
2022-11-20T08:00:27.664Z,76.56
2022-11-20T08:02:54.663Z,76.55
2022-11-20T08:05:21.945Z,76.90
2022-11-20T08:07:48.844Z,76.82
2022-11-20T08:10:17.222Z,76.55
2022-11-20T08:13:14.916Z,77.49
2022-11-20T08:15:41.626Z,77.28
2022-11-20T08:21:02.653Z,77.50
2022-11-20T08:23:29.133Z,77.48
2022-11-20T08:25:55.607Z,77.60
2022-11-20T08:28:22.533Z,77.77
2022-11-20T08:30:51.518Z,78.16
2022-11-20T08:33:18.989Z,78.71
2022-11-20T08:35:45.588Z,79.02
2022-11-20T08:38:12.230Z,79.00
2022-11-20T08:40:38.708Z,79.27
2022-11-20T08:43:05.420Z,79.25
2022-11-20T08:45:34.746Z,78.20
2022-11-20T08:48:03.584Z,78.23
2022-11-20T08:50:33.287Z,78.13
2022-11-20T08:53:06.759Z,78.20
2022-11-20T08:55:33.708Z,77.52
2022-11-20T08:58:04.599Z,76.77
2022-11-20T09:00:31.053Z,77.19
2022-11-20T09:02:58.449Z,77.04
2022-11-20T09:05:25.146Z,76.68
2022-11-20T09:07:51.642Z,76.21
2022-11-20T09:10:25.536Z,75.85
2022-11-20T09:12:53.203Z,76.38
2022-11-20T09:15:20.327Z,75.99
2022-11-20T09:18:05.960Z,75.89
2022-11-20T09:20:32.840Z,75.71
2022-11-20T09:22:59.365Z,75.52
2022-11-20T09:25:25.866Z,75.28
2022-11-20T09:27:59.760Z,75.33
2022-11-20T09:30:28.471Z,74.99
2022-11-20T09:32:55.130Z,75.02
2022-11-20T09:35:21.633Z,75.41
2022-11-20T09:37:48.129Z,75.78
2022-11-20T09:40:21.761Z,75.38
2022-11-20T09:42:51.199Z,75.40
2022-11-20T09:45:44.010Z,75.24
2022-11-20T09:48:31.243Z,75.55
2022-11-20T09:51:45.808Z,75.70
2022-11-20T09:54:28.835Z,75.75
2022-11-20T09:57:00.532Z,75.76
2022-11-20T09:59:51.393Z,76.13
2022-11-20T10:02:29.031Z,76.24
2022-11-20T10:05:14.489Z,76.48
2022-11-20T10:08:05.866Z,76.75
2022-11-20T10:10:57.356Z,76.36
2022-11-20T10:13:23.789Z,76.37
2022-11-20T10:16:10.612Z,76.38
2022-11-20T10:18:54.270Z,76.04
2022-11-20T10:21:26.655Z,76.03
2022-11-20T10:24:08.541Z,76.05
2022-11-20T10:26:54.636Z,76.07
2022-11-20T10:29:36.144Z,75.41
2022-11-20T10:32:21.417Z,75.89
2022-11-20T10:35:14.499Z,75.70
2022-11-20T10:37:45.797Z,75.58
2022-11-20T10:40:49.395Z,75.39
2022-11-20T10:43:33.222Z,76.19
2022-11-20T10:46:04.954Z,75.93
2022-11-20T10:48:32.865Z,75.96
2022-11-20T10:51:11.986Z,75.92
2022-11-20T10:53:44.705Z,75.50
2022-11-20T10:56:48.305Z,75.62
2022-11-20T10:59:44.131Z,75.57
2022-11-20T11:02:22.409Z,75.41
2022-11-20T11:04:51.960Z,74.88
2022-11-20T11:07:39.598Z,75.38
2022-11-20T11:10:43.668Z,75.62
2022-11-20T11:13:21.407Z,75.76
2022-11-20T11:15:47.904Z,75.77
2022-11-20T11:18:27.690Z,76.03
2022-11-20T11:20:56.283Z,76.10
2022-11-20T11:23:33.838Z,76.29
2022-11-20T11:26:02.185Z,75.96
2022-11-20T11:28:29.666Z,76.05
2022-11-20T11:30:56.889Z,76.08
2022-11-20T11:33:28.811Z,76.17
2022-11-20T11:36:17.877Z,75.95
2022-11-20T11:38:45.548Z,76.08
2022-11-20T11:41:24.189Z,75.85
2022-11-20T11:44:13.410Z,76.14
2022-11-20T11:46:44.954Z,75.95
2022-11-20T11:49:11.354Z,75.82
2022-11-20T11:52:25.943Z,76.01
2022-11-20T11:54:56.165Z,75.93
2022-11-20T11:57:37.918Z,76.05
2022-11-20T12:00:17.647Z,76.11
2022-11-20T12:02:47.351Z,76.09
2022-11-20T12:05:22.865Z,76.04
2022-11-20T12:07:58.522Z,76.29
2022-11-20T12:10:42.666Z,75.99
2022-11-20T12:13:31.050Z,76.63
2022-11-20T12:15:57.642Z,76.63
2022-11-20T12:18:24.325Z,76.83
2022-11-20T12:21:16.018Z,76.74
2022-11-20T12:23:42.452Z,76.37
2022-11-20T12:26:49.670Z,76.48
2022-11-20T12:29:22.482Z,76.34
2022-11-20T12:32:02.374Z,76.53
2022-11-20T12:34:51.953Z,76.71
2022-11-20T12:37:24.542Z,76.48
2022-11-20T12:39:54.348Z,76.39
2022-11-20T12:43:00.510Z,76.22
2022-11-20T12:45:41.302Z,75.92
2022-11-20T12:48:25.480Z,75.93
2022-11-20T12:51:17.026Z,76.07
2022-11-20T12:54:20.472Z,75.80
2022-11-20T12:57:16.951Z,75.87
2022-11-20T13:00:11.865Z,76.15
2022-11-20T13:03:08.941Z,75.75
2022-11-20T13:05:59.922Z,76.12
2022-11-20T13:08:33.349Z,75.88
2022-11-20T13:11:14.440Z,76.24
2022-11-20T13:13:48.235Z,76.39
2022-11-20T13:16:26.160Z,76.42
2022-11-20T13:18:52.890Z,76.88
2022-11-20T13:21:40.917Z,76.74
2022-11-20T13:24:25.009Z,76.41
2022-11-20T13:27:07.037Z,77.26
2022-11-20T13:29:35.477Z,78.23
2022-11-20T13:32:19.439Z,78.66
2022-11-20T13:34:58.220Z,79.36
2022-11-20T13:37:30.478Z,79.21
2022-11-20T13:40:13.138Z,79.42
2022-11-20T13:42:46.544Z,79.94
2022-11-20T13:45:41.588Z,80.51
2022-11-20T13:48:23.070Z,81.19
2022-11-20T13:51:08.006Z,80.54
2022-11-20T13:54:13.419Z,80.83
2022-11-20T13:56:45.973Z,80.57
2022-11-20T13:59:27.712Z,80.77
2022-11-20T14:01:54.959Z,81.10
2022-11-20T14:04:30.094Z,81.33
2022-11-20T14:06:57.829Z,81.08
2022-11-20T14:09:33.371Z,81.20
2022-11-20T14:12:00.505Z,81.85
2022-11-20T14:14:29.360Z,81.78
2022-11-20T14:17:28.557Z,81.98
2022-11-20T14:19:59.119Z,82.55
2022-11-20T14:22:27.108Z,82.25
2022-11-20T14:25:16.568Z,83.42
2022-11-20T14:27:48.837Z,82.67
2022-11-20T14:30:21.982Z,82.70
2022-11-20T14:32:49.661Z,82.87
2022-11-20T14:35:27.601Z,82.95
2022-11-20T14:37:54.937Z,83.52
2022-11-20T14:40:38.445Z,83.39
2022-11-20T14:43:24.893Z,83.29
2022-11-20T14:46:00.766Z,83.33
2022-11-20T14:48:36.247Z,83.43
2022-11-20T14:51:03.269Z,83.47
2022-11-20T14:53:29.748Z,83.82
2022-11-20T14:56:01.484Z,84.02
2022-11-20T14:58:32.477Z,84.00
2022-11-20T15:01:05.093Z,84.40
2022-11-20T15:03:40.235Z,84.19
2022-11-20T15:06:08.941Z,84.39
2022-11-20T15:08:35.949Z,84.42
2022-11-20T15:11:03.094Z,84.86
2022-11-20T15:13:35.491Z,84.81
2022-11-20T15:16:02.975Z,85.01
2022-11-20T15:18:38.520Z,84.92
2022-11-20T15:21:11.813Z,85.18
2022-11-20T15:23:38.609Z,85.54
2022-11-20T15:26:06.764Z,85.23
2022-11-20T15:28:45.056Z,85.82
2022-11-20T15:31:17.636Z,85.99
2022-11-20T15:33:44.371Z,86.26
2022-11-20T15:36:11.187Z,85.79
2022-11-20T15:38:38.072Z,85.88
2022-11-20T15:41:05.243Z,86.14
2022-11-20T15:43:31.718Z,86.13
2022-11-20T15:46:03.450Z,86.72
2022-11-20T15:48:46.195Z,86.54
2022-11-20T15:51:36.062Z,86.19
2022-11-20T15:54:11.285Z,86.45
2022-11-20T15:56:38.444Z,86.75
2022-11-20T15:59:04.944Z,86.58
2022-11-20T16:01:31.783Z,86.81
2022-11-20T16:03:58.334Z,86.83
2022-11-20T16:06:24.770Z,87.15
2022-11-20T16:08:51.234Z,87.27
2022-11-20T16:11:19.122Z,86.99
2022-11-20T16:14:04.745Z,87.24
2022-11-20T16:16:35.112Z,87.45
2022-11-20T16:19:01.588Z,87.35
2022-11-20T16:21:32.513Z,87.53
2022-11-20T16:24:01.554Z,87.57
2022-11-20T16:26:28.836Z,87.38
2022-11-20T16:28:55.940Z,87.52
2022-11-20T16:31:23.278Z,87.93
2022-11-20T16:33:51.880Z,88.36
2022-11-20T16:36:19.653Z,88.44
2022-11-20T16:38:46.218Z,88.41
2022-11-20T16:41:15.766Z,88.69
2022-11-20T16:44:02.346Z,88.72
2022-11-20T16:46:32.688Z,89.15
2022-11-20T16:49:01.292Z,89.80
2022-11-20T16:51:29.656Z,89.57
2022-11-20T16:53:56.785Z,89.88
2022-11-20T16:56:25.846Z,89.96
2022-11-20T16:58:54.865Z,89.77
2022-11-20T17:01:23.050Z,90.33
2022-11-20T17:04:04.185Z,90.15
2022-11-20T17:06:44.287Z,90.50
2022-11-20T17:09:11.285Z,91.03
2022-11-20T17:11:37.921Z,91.30
2022-11-20T17:14:09.492Z,91.17
2022-11-20T17:16:36.971Z,90.82
2022-11-20T17:19:05.684Z,90.85
2022-11-20T17:21:33.554Z,90.79
2022-11-20T17:24:02.336Z,91.05
2022-11-20T17:26:29.434Z,90.98
2022-11-20T17:29:01.766Z,91.36
2022-11-20T17:31:30.088Z,91.03
2022-11-20T17:33:56.704Z,91.58
2022-11-20T17:36:23.287Z,91.66
2022-11-20T17:38:49.985Z,91.71
2022-11-20T17:41:18.824Z,92.32
2022-11-20T17:43:46.481Z,92.32
2022-11-20T17:46:18.081Z,91.86
2022-11-20T17:48:45.591Z,92.42
2022-11-20T17:51:14.709Z,92.98
2022-11-20T17:53:43.201Z,93.31
2022-11-20T17:56:29.082Z,93.39
2022-11-20T17:58:55.972Z,93.39
2022-11-20T18:01:22.828Z,93.56
2022-11-20T18:03:49.969Z,93.77
2022-11-20T18:06:22.503Z,94.13
2022-11-20T18:08:50.290Z,94.32
2022-11-20T18:11:25.696Z,94.02
2022-11-20T18:14:13.784Z,94.14
2022-11-20T18:16:43.406Z,94.52
2022-11-20T18:19:11.964Z,94.73
2022-11-20T18:21:38.701Z,94.97
2022-11-20T18:24:08.622Z,94.97
2022-11-20T18:26:39.954Z,95.44
2022-11-20T18:29:10.017Z,94.86
2022-11-20T18:31:36.518Z,95.39
2022-11-20T18:34:03.260Z,95.19
2022-11-20T18:36:31.140Z,95.38
2022-11-20T18:39:00.017Z,95.67
2022-11-20T18:41:47.021Z,96.09
2022-11-20T18:44:36.982Z,96.10
2022-11-20T18:47:08.361Z,96.54
2022-11-20T18:49:40.444Z,96.70
2022-11-20T18:52:06.951Z,96.58
2022-11-20T18:54:36.292Z,96.73
2022-11-20T18:57:03.372Z,96.76
2022-11-20T18:59:30.156Z,96.39
2022-11-20T19:01:56.932Z,96.65
2022-11-20T19:04:23.735Z,96.86
2022-11-20T19:06:50.578Z,97.11
2022-11-20T19:09:17.377Z,96.79
2022-11-20T19:11:43.990Z,96.90
2022-11-20T19:14:10.753Z,96.93
2022-11-20T19:16:37.464Z,96.67
2022-11-20T19:19:05.542Z,97.21
2022-11-20T19:21:32.483Z,97.13
2022-11-20T19:24:01.241Z,97.47
2022-11-20T19:26:28.208Z,97.29
2022-11-20T19:28:55.181Z,97.97
2022-11-20T19:31:25.081Z,97.67
2022-11-20T19:33:57.099Z,97.89
2022-11-20T19:36:38.078Z,97.99
2022-11-20T19:39:09.238Z,97.92
2022-11-20T19:41:37.866Z,98.09
2022-11-20T19:44:06.888Z,98.09
2022-11-20T19:46:35.826Z,97.79
2022-11-20T19:49:03.557Z,97.76
2022-11-20T19:51:33.924Z,97.75
2022-11-20T19:54:01.950Z,98.10
2022-11-20T19:56:29.730Z,98.00
2022-11-20T19:58:57.621Z,98.13
2022-11-20T20:01:29.449Z,97.87
2022-11-20T20:03:57.662Z,98.00
2022-11-20T20:06:28.132Z,97.73
2022-11-20T20:09:00.336Z,97.40
2022-11-20T20:11:28.868Z,97.64
2022-11-20T20:13:56.434Z,97.55
2022-11-20T20:16:25.342Z,97.48
2022-11-20T20:19:01.309Z,97.53
2022-11-20T20:21:28.231Z,97.27
2022-11-20T20:23:55.562Z,96.79
2022-11-20T20:26:26.982Z,96.63
2022-11-20T20:28:53.941Z,96.77
2022-11-20T20:31:23.437Z,96.92
2022-11-20T20:33:49.976Z,97.04
2022-11-20T20:36:18.837Z,96.88
2022-11-20T20:38:46.511Z,96.78
2022-11-20T20:41:13.919Z,96.51
2022-11-20T20:43:59.664Z,96.31
2022-11-20T20:46:26.237Z,95.98
2022-11-20T20:48:54.824Z,95.81
2022-11-20T20:51:22.882Z,95.48
2022-11-20T20:53:50.020Z,95.83
2022-11-20T20:56:17.430Z,95.54
2022-11-20T20:58:44.084Z,95.30
2022-11-20T21:01:13.677Z,95.00
2022-11-20T21:03:40.362Z,94.93
2022-11-20T21:06:09.946Z,94.91
2022-11-20T21:08:40.161Z,94.96
2022-11-20T21:11:10.195Z,94.86
2022-11-20T21:13:38.122Z,94.55
2022-11-20T21:16:05.362Z,94.52
2022-11-20T21:18:33.274Z,94.57
2022-11-20T21:21:18.587Z,94.39
2022-11-20T21:23:48.345Z,94.42
2022-11-20T21:26:16.085Z,94.62
2022-11-20T21:28:43.391Z,94.93
2022-11-20T21:31:15.633Z,94.74
2022-11-20T21:33:46.433Z,94.72
2022-11-20T21:36:15.439Z,95.01
2022-11-20T21:38:42.208Z,94.30
2022-11-20T21:41:10.743Z,94.57
2022-11-20T21:43:37.625Z,94.63
2022-11-20T21:46:09.424Z,94.18
2022-11-20T21:48:37.845Z,93.96
2022-11-20T21:51:06.913Z,94.21
2022-11-20T21:53:34.500Z,93.75
2022-11-20T21:56:01.962Z,93.71
2022-11-20T21:58:28.571Z,94.27
2022-11-20T22:00:55.151Z,94.43
2022-11-20T22:03:22.188Z,94.17
2022-11-20T22:05:58.860Z,93.72
2022-11-20T22:08:26.450Z,94.00
2022-11-20T22:11:04.251Z,93.85
2022-11-20T22:13:49.926Z,94.02
2022-11-20T22:16:16.490Z,93.78
2022-11-20T22:18:48.518Z,93.80
2022-11-20T22:21:16.804Z,93.95
2022-11-20T22:23:43.668Z,93.94
2022-11-20T22:26:16.332Z,94.31
2022-11-20T22:28:43.277Z,94.16
2022-11-20T22:31:11.413Z,93.94
2022-11-20T22:33:39.070Z,93.90
2022-11-20T22:36:07.825Z,93.35
2022-11-20T22:38:39.132Z,93.13
2022-11-20T22:41:08.498Z,92.70
2022-11-20T22:43:35.215Z,92.71
2022-11-20T22:46:07.561Z,93.16
2022-11-20T22:48:35.236Z,93.13
2022-11-20T22:51:09.148Z,92.56
2022-11-20T22:53:36.103Z,92.45
2022-11-20T22:56:03.861Z,92.42
2022-11-20T22:58:31.009Z,92.61
2022-11-20T23:01:11.048Z,92.70
2022-11-20T23:03:38.868Z,91.88
2022-11-20T23:06:07.206Z,91.90
2022-11-20T23:08:33.772Z,91.77
2022-11-20T23:11:06.414Z,91.70
2022-11-20T23:13:33.638Z,91.48
2022-11-20T23:16:03.009Z,91.61
2022-11-20T23:18:29.910Z,91.72
2022-11-20T23:20:57.076Z,91.38
2022-11-20T23:23:23.597Z,90.88
2022-11-20T23:25:50.693Z,90.93
2022-11-20T23:28:17.153Z,90.73
2022-11-20T23:30:47.471Z,90.37
2022-11-20T23:33:13.936Z,90.15
2022-11-20T23:35:40.415Z,90.04
2022-11-20T23:38:06.891Z,90.34
2022-11-20T23:40:38.753Z,90.69
2022-11-20T23:43:16.837Z,90.73
2022-11-20T23:45:48.449Z,89.83
2022-11-20T23:48:15.735Z,90.18
2022-11-20T23:50:43.889Z,90.02
2022-11-20T23:53:11.432Z,90.04
2022-11-20T23:55:38.012Z,90.06
2022-11-20T23:58:05.026Z,89.53
